Time;durP1;ratioP1;P1;durP2;ratioP2;P2;SDS_P1;SDS_P2;PMS_P1;PMS_P2;Temp;Humidity;BMP_temperature;BMP_pressure;BME280_temperature;BME280_humidity;BME280_pressure;Samples;Min_cycle;Max_cycle;Signal;HPM_P1;HPM_P2
2021/12/10 00:03:15;;;;;;;;;;;19.40;57.60;;;23.60;33.93;93430.78;6036139;19;20298;-64
2021/12/10 00:05:30;;;;;;;;;;;19.40;57.60;;;23.61;33.63;93422.25;6086806;19;19919;-65
2021/12/10 00:07:31;;;;;;;;;;;19.40;57.70;;;23.62;33.61;93420.34;6097289;19;19919;-66
2021/12/10 00:09:38;;;;;;;;;;;19.40;57.60;;;23.60;33.97;93414.44;6103876;19;19923;-64
2021/12/10 00:12:03;;;;;;;;;;;19.40;57.60;;;23.60;33.90;93419.91;6102418;19;20472;-68
2021/12/10 00:14:05;;;;;;;;;;;19.40;57.60;;;23.60;33.88;93414.44;6097795;19;20336;-68
2021/12/10 00:16:05;;;;;;;;;;;19.40;57.50;;;23.60;33.71;93409.78;6102381;19;19919;-66
2021/12/10 00:18:10;;;;;;;;;;;19.40;57.50;;;23.59;34.08;93402.78;6103169;19;19968;-67
2021/12/10 00:20:11;;;;;;;;;;;19.40;57.50;;;23.60;33.90;93409.78;6103249;19;19990;-67
2021/12/10 00:22:17;;;;;;;;;;;19.40;57.50;;;23.60;33.71;93401.63;6103125;19;20446;-66
2021/12/10 00:24:18;;;;;;;;;;;19.40;57.50;;;23.59;34.04;93397.34;6103023;19;19948;-63
2021/12/10 00:26:20;;;;;;;;;;;19.40;57.50;;;23.60;34.04;93395.41;6105789;19;20044;-66
2021/12/10 00:28:30;;;;;;;;;;;19.40;57.50;;;23.60;34.13;93389.97;6107543;19;19923;-64
2021/12/10 00:30:39;;;;;;;;;;;19.40;57.50;;;23.59;33.60;93391.13;6097003;19;19915;-66
2021/12/10 00:32:44;;;;;;;;;;;19.40;57.40;;;23.59;34.07;93381.03;6100074;19;20262;-64
2021/12/10 00:34:49;;;;;;;;;;;19.40;57.40;;;23.59;33.84;93375.59;6103791;19;19997;-65
2021/12/10 00:36:53;;;;;;;;;;;19.40;57.40;;;23.60;33.98;93370.94;6105379;19;20368;-65
2021/12/10 00:38:54;;;;;;;;;;;19.40;57.40;;;23.60;33.86;93368.22;6106547;19;19918;-68
2021/12/10 00:40:54;;;;;;;;;;;19.40;57.30;;;23.60;33.99;93362.78;6099463;19;20264;-67
2021/12/10 00:42:56;;;;;;;;;;;19.40;57.30;;;23.61;34.06;93356.94;6090249;19;19915;-65
2021/12/10 00:44:59;;;;;;;;;;;19.40;57.30;;;23.61;33.72;93350.72;6092844;19;19919;-67
2021/12/10 00:47:00;;;;;;;;;;;19.40;57.30;;;23.62;33.83;93349.59;6098232;19;20594;-66
2021/12/10 00:49:01;;;;;;;;;;;19.50;57.40;;;23.62;33.60;93338.72;6100688;19;19939;-67
2021/12/10 00:51:03;;;;;;;;;;;19.50;57.30;;;23.63;33.96;93343.00;6101053;19;19919;-64
2021/12/10 00:53:04;;;;;;;;;;;19.40;57.20;;;23.63;33.48;93343.00;6100341;19;19919;-64
2021/12/10 00:55:06;;;;;;;;;;;19.50;57.30;;;23.63;33.49;93329.41;6102246;19;20314;-67
2021/12/10 00:57:08;;;;;;;;;;;19.50;57.30;;;23.62;33.99;93325.13;6097643;19;19927;-63
2021/12/10 00:59:10;;;;;;;;;;;19.50;57.30;;;23.62;33.54;93323.19;6100994;19;19926;-67
2021/12/10 01:01:15;;;;;;;;;;;19.50;57.30;;;23.64;33.49;93322.81;6100173;19;20290;-63
2021/12/10 01:03:31;;;;;;;;;;;19.50;57.30;;;23.63;33.89;93316.56;6103095;19;19914;-63
2021/12/10 01:05:33;;;;;;;;;;;19.50;57.30;;;23.64;33.89;93314.63;6106720;19;19962;-63
2021/12/10 01:07:35;;;;;;;;;;;19.50;57.20;;;23.63;33.88;93313.88;6110466;19;19930;-64
2021/12/10 01:09:39;;;;;;;;;;;19.50;57.20;;;23.64;33.99;93306.47;6106315;19;19915;-66
2021/12/10 01:11:49;;;;;;;;;;;19.50;57.20;;;23.65;33.58;93299.88;6101578;19;19927;-68
2021/12/10 01:13:53;;;;;;;;;;;19.50;57.20;;;23.64;33.56;93295.59;6102112;19;19923;-64
2021/12/10 01:25:37;;;;;;;;;;;19.50;57.20;;;23.63;33.56;93277.72;6116935;19;20243;-63
2021/12/10 01:27:43;;;;;;;;;;;19.50;57.10;;;23.65;33.83;93275.41;6113185;19;19915;-64
2021/12/10 01:29:45;;;;;;;;;;;19.50;57.10;;;23.65;33.45;93265.28;6112811;19;19915;-66
2021/12/10 01:31:49;;;;;;;;;;;19.50;57.10;;;23.65;33.69;93256.34;6106261;19;19907;-64
2021/12/10 01:33:52;;;;;;;;;;;19.50;57.10;;;23.66;33.60;93260.63;6105952;19;19943;-66
2021/12/10 01:35:54;;;;;;;;;;;19.50;57.10;;;23.65;33.66;93246.25;6083102;19;20519;-63
2021/12/10 01:37:55;;;;;;;;;;;19.50;57.10;;;23.67;33.48;93256.75;6089006;19;19919;-63
2021/12/10 01:39:56;;;;;;;;;;;19.50;57.10;;;23.67;33.91;93241.22;6084034;19;21032;-63
2021/12/10 01:42:12;;;;;;;;;;;19.50;57.10;;;23.68;33.48;93242.78;6079840;19;19921;-63
2021/12/10 01:44:17;;;;;;;;;;;19.50;57.10;;;23.68;33.55;93242.78;6077753;19;19914;-63
2021/12/10 01:46:27;;;;;;;;;;;19.50;57.00;;;23.69;33.52;93238.13;6065202;19;19915;-63
2021/12/10 01:48:32;;;;;;;;;;;19.50;57.10;;;23.69;33.50;93238.91;6057403;19;19970;-62
2021/12/10 01:50:34;;;;;;;;;;;19.50;57.10;;;23.69;33.55;93235.41;6063361;19;20228;-63
2021/12/10 01:52:34;;;;;;;;;;;19.50;57.00;;;23.70;33.32;93226.84;6059278;19;19918;-63
2021/12/10 01:54:39;;;;;;;;;;;19.50;57.00;;;23.70;33.63;93217.91;6062833;19;19991;-63
2021/12/10 01:56:40;;;;;;;;;;;19.50;57.00;;;23.71;33.71;93211.31;6076052;19;19915;-63
2021/12/10 01:58:41;;;;;;;;;;;19.50;57.60;;;23.71;33.30;93203.16;6068104;19;19990;-63
2021/12/10 02:00:54;;;;;;;;;;;19.50;56.90;;;23.71;33.37;93195.78;6054340;19;20382;-63
2021/12/10 02:02:55;;;;;;;;;;;19.50;56.90;;;23.70;33.80;93191.47;6052371;19;19918;-64
2021/12/10 02:04:56;;;;;;;;;;;19.50;56.90;;;23.72;33.82;93186.44;6077302;19;20559;-62
2021/12/10 02:06:57;;;;;;;;;;;19.50;56.90;;;23.72;33.60;93177.50;6083015;19;21553;-62
2021/12/10 02:08:58;;;;;;;;;;;19.50;56.90;;;23.71;33.47;93168.56;6076960;19;19915;-63
2021/12/10 02:10:59;;;;;;;;;;;19.50;56.90;;;23.72;33.52;93163.91;6067769;19;19978;-63
2021/12/10 02:13:00;;;;;;;;;;;19.50;56.90;;;23.72;33.42;93161.97;6054954;19;19919;-62
2021/12/10 02:15:02;;;;;;;;;;;19.50;56.90;;;23.71;33.59;93149.50;6072877;19;20257;-63
2021/12/10 02:17:03;;;;;;;;;;;19.50;56.80;;;23.72;33.25;93155.75;6066962;19;21060;-63
2021/12/10 02:19:05;;;;;;;;;;;19.60;56.90;;;23.73;33.74;93149.13;6062273;19;19911;-63
2021/12/10 02:21:09;;;;;;;;;;;19.50;56.80;;;23.74;33.41;93145.25;6069791;19;19926;-63
2021/12/10 02:23:10;;;;;;;;;;;19.50;56.80;;;23.73;33.72;93138.25;6061746;19;19923;-63
2021/12/10 02:25:12;;;;;;;;;;;19.50;56.90;;;23.72;33.65;93121.16;6049747;19;20007;-63
2021/12/10 02:27:12;;;;;;;;;;;19.60;56.80;;;23.72;33.69;93112.22;6066315;19;20265;-63
2021/12/10 02:29:17;;;;;;;;;;;19.60;56.80;;;23.73;33.45;93105.59;6076601;19;19911;-65
2021/12/10 02:31:18;;;;;;;;;;;19.60;56.80;;;23.73;33.65;93102.88;6064923;19;19997;-64
2021/12/10 02:33:20;;;;;;;;;;;19.50;56.70;;;23.73;33.59;93094.72;6015347;19;19922;-62
2021/12/10 02:35:21;;;;;;;;;;;19.60;56.80;;;23.73;33.20;93092.78;6061372;19;19950;-62
2021/12/10 02:37:22;;;;;;;;;;;19.60;56.80;;;23.74;33.60;93088.13;6062964;19;20274;-62
2021/12/10 02:39:24;;;;;;;;;;;19.60;56.80;;;23.73;33.23;93081.13;6056718;19;19946;-63
2021/12/10 02:41:28;;;;;;;;;;;19.50;56.90;;;23.72;33.59;93069.47;6062968;19;19976;-62
2021/12/10 02:43:28;;;;;;;;;;;19.60;56.90;;;23.74;33.61;93060.91;6031483;19;19995;-62
2021/12/10 02:45:30;;;;;;;;;;;19.50;56.90;;;23.74;33.50;93061.69;6056242;19;20023;-62
2021/12/10 02:47:30;;;;;;;;;;;19.50;56.90;;;23.74;33.30;93060.91;6051476;19;19919;-62
2021/12/10 02:49:32;;;;;;;;;;;19.60;56.90;;;23.74;33.60;93055.47;6051153;19;19927;-61
2021/12/10 02:51:35;;;;;;;;;;;19.60;57.00;;;23.73;33.28;93059.34;6052719;19;20408;-62
2021/12/10 02:53:41;;;;;;;;;;;19.60;56.90;;;23.74;33.45;93050.81;6040892;19;19918;-61
2021/12/10 02:55:42;;;;;;;;;;;19.60;57.00;;;23.74;33.31;93044.59;6042117;19;19922;-62
2021/12/10 02:57:48;;;;;;;;;;;19.60;57.00;;;23.75;33.45;93051.59;6058504;19;19939;-61
2021/12/10 02:59:49;;;;;;;;;;;19.60;57.00;;;23.74;33.48;93047.31;6069330;19;19994;-62
2021/12/10 03:01:51;;;;;;;;;;;19.60;57.00;;;23.74;33.69;93047.31;6048729;19;20715;-61
2021/12/10 03:03:52;;;;;;;;;;;19.60;57.60;;;23.75;33.47;93048.88;6059711;19;19919;-62
2021/12/10 03:05:53;;;;;;;;;;;19.50;56.90;;;23.74;33.55;93045.38;6055254;19;19922;-62
2021/12/10 03:07:54;;;;;;;;;;;19.60;57.00;;;23.74;33.44;93044.59;6060350;19;19942;-61
2021/12/10 03:09:55;;;;;;;;;;;19.60;56.90;;;23.74;33.56;93033.69;6060788;19;19921;-62
2021/12/10 03:11:58;;;;;;;;;;;19.60;56.90;;;23.74;33.51;93039.94;6056462;19;19914;-62
2021/12/10 03:14:05;;;;;;;;;;;19.50;56.80;;;23.75;33.91;93035.25;6057059;19;19981;-62
2021/12/10 03:16:06;;;;;;;;;;;19.60;56.90;;;23.73;33.34;93030.19;6069147;19;20340;-61
2021/12/10 03:18:10;;;;;;;;;;;19.60;56.90;;;23.73;33.16;93022.03;6081814;19;20376;-61
2021/12/10 03:20:13;;;;;;;;;;;19.60;56.80;;;23.73;33.45;93018.53;6076839;19;20267;-62
2021/12/10 03:22:14;;;;;;;;;;;19.60;56.80;;;23.73;33.68;93015.81;6066065;19;20237;-61
2021/12/10 03:24:18;;;;;;;;;;;19.60;56.80;;;23.73;33.29;93011.16;6053896;19;19935;-62
2021/12/10 03:26:20;;;;;;;;;;;19.60;56.80;;;23.73;33.16;93004.94;6050351;19;22321;-62
2021/12/10 03:28:21;;;;;;;;;;;19.60;56.80;;;23.74;33.47;92993.66;6037558;19;19933;-63
2021/12/10 03:30:27;;;;;;;;;;;19.60;56.80;;;23.74;33.29;92984.72;6066746;19;20987;-62
2021/12/10 03:32:30;;;;;;;;;;;19.60;56.80;;;23.73;33.61;92983.94;6057871;19;20260;-63
2021/12/10 03:34:31;;;;;;;;;;;19.60;56.80;;;23.73;33.63;92989.41;6051916;19;19923;-63
2021/12/10 03:36:32;;;;;;;;;;;19.60;56.80;;;23.74;33.48;92988.22;6057628;19;19918;-62
2021/12/10 03:38:34;;;;;;;;;;;19.60;56.80;;;23.74;33.46;92987.44;6045521;19;19966;-63
2021/12/10 03:40:35;;;;;;;;;;;19.60;56.80;;;23.74;33.28;92977.34;6041254;19;21040;-62
2021/12/10 03:42:36;;;;;;;;;;;19.60;56.80;;;23.75;33.21;92978.91;6054161;19;19914;-62
2021/12/10 03:44:37;;;;;;;;;;;19.60;56.80;;;23.76;33.58;92971.53;6037013;19;19926;-63
2021/12/10 03:46:38;;;;;;;;;;;19.60;56.70;;;23.75;33.09;92964.53;6043755;19;19966;-61
2021/12/10 03:48:41;;;;;;;;;;;19.60;56.80;;;23.74;33.60;92963.75;6071417;19;19929;-62
2021/12/10 03:50:43;;;;;;;;;;;19.60;56.70;;;23.74;33.18;92969.19;6074965;19;19915;-62
2021/12/10 03:52:43;;;;;;;;;;;19.60;56.70;;;23.74;33.27;92955.59;6051726;19;19923;-63
2021/12/10 03:54:44;;;;;;;;;;;19.60;56.70;;;23.74;33.26;92952.09;6047110;19;19911;-62
2021/12/10 03:56:48;;;;;;;;;;;19.60;56.80;;;23.75;33.51;92945.47;6042339;19;19938;-64
2021/12/10 03:58:49;;;;;;;;;;;19.60;56.80;;;23.74;33.43;92947.41;6036938;19;20359;-63
2021/12/10 04:00:53;;;;;;;;;;;19.60;56.70;;;23.74;33.33;92944.69;6054904;19;19934;-62
2021/12/10 04:02:54;;;;;;;;;;;19.60;56.70;;;23.73;33.49;92936.94;6050312;19;19915;-62
2021/12/10 04:04:55;;;;;;;;;;;19.60;56.70;;;23.75;33.22;92937.31;6048019;19;19926;-62
2021/12/10 04:06:57;;;;;;;;;;;19.60;56.70;;;23.75;33.65;92929.94;6049204;19;19918;-63
2021/12/10 04:08:58;;;;;;;;;;;19.70;56.80;;;23.75;33.48;92927.22;6044479;19;19923;-62
2021/12/10 04:10:59;;;;;;;;;;;19.60;56.70;;;23.74;33.06;92925.66;6037533;19;20877;-62
2021/12/10 04:13:00;;;;;;;;;;;19.50;56.80;;;23.74;33.50;92920.22;6043683;19;19921;-62
2021/12/10 04:15:04;;;;;;;;;;;19.50;56.80;;;23.74;33.54;92924.88;6070290;19;19919;-62
2021/12/10 04:17:05;;;;;;;;;;;19.50;56.80;;;23.72;33.45;92916.31;6049357;19;19914;-62
2021/12/10 04:19:09;;;;;;;;;;;19.50;56.80;;;23.71;33.16;92912.81;6073979;19;19926;-62
2021/12/10 04:21:12;;;;;;;;;;;19.60;56.90;;;23.71;33.31;92909.31;6076436;19;20271;-62
2021/12/10 04:23:18;;;;;;;;;;;19.50;56.80;;;23.70;33.20;92905.06;6055054;19;19957;-63
2021/12/10 04:25:20;;;;;;;;;;;19.50;56.80;;;23.69;33.62;92900.78;6050406;19;21138;-62
2021/12/10 04:27:21;;;;;;;;;;;19.50;56.80;;;23.67;33.56;92893.00;6054935;19;19934;-61
2021/12/10 04:29:22;;;;;;;;;;;19.50;56.90;;;23.66;33.42;92879.78;6048285;19;19911;-63
2021/12/10 04:31:23;;;;;;;;;;;19.50;56.90;;;23.66;33.63;92879.78;6056413;19;19919;-62
2021/12/10 04:33:26;;;;;;;;;;;19.50;56.90;;;23.63;33.77;92880.56;6057821;19;19975;-62
2021/12/10 04:35:26;;;;;;;;;;;19.50;57.00;;;23.63;33.65;92886.00;6057743;19;19923;-62
2021/12/10 04:37:27;;;;;;;;;;;19.50;56.90;;;23.62;33.25;92885.22;6075306;19;19971;-62
2021/12/10 04:39:29;;;;;;;;;;;19.50;56.90;;;23.61;33.38;92883.63;6073051;19;19918;-61
2021/12/10 04:41:30;;;;;;;;;;;19.50;56.90;;;23.61;33.76;92896.47;6054184;19;19931;-61
2021/12/10 04:43:31;;;;;;;;;;;19.50;56.90;;;23.61;33.46;92889.06;6049603;19;19922;-62
2021/12/10 04:45:32;;;;;;;;;;;19.50;56.90;;;23.61;33.36;92891.03;6060984;19;19915;-62
2021/12/10 04:47:34;;;;;;;;;;;19.50;56.90;;;23.62;33.47;92887.16;6062595;19;20735;-62
2021/12/10 04:49:36;;;;;;;;;;;19.50;56.90;;;23.62;33.28;92865.41;6078654;19;19918;-62
2021/12/10 04:51:42;;;;;;;;;;;19.50;56.80;;;23.63;33.46;92865.00;6081093;19;20010;-61
2021/12/10 04:53:43;;;;;;;;;;;19.50;56.80;;;23.64;33.77;92854.91;6063334;19;19927;-62
2021/12/10 04:55:44;;;;;;;;;;;19.50;56.80;;;23.65;33.45;92842.88;6047221;19;20962;-62
2021/12/10 04:57:45;;;;;;;;;;;19.50;56.80;;;23.66;33.53;92842.47;6064027;19;19930;-61
2021/12/10 04:59:46;;;;;;;;;;;19.50;56.80;;;23.67;33.25;92845.97;6058253;19;19914;-62
2021/12/10 05:01:48;;;;;;;;;;;19.50;56.90;;;23.68;33.30;92840.16;6062808;19;19979;-61
2021/12/10 05:03:48;;;;;;;;;;;19.50;56.90;;;23.69;33.62;92841.72;6074204;19;20300;-62
2021/12/10 05:05:49;;;;;;;;;;;19.50;56.90;;;23.70;33.71;92840.53;6063193;19;19919;-61
2021/12/10 05:07:50;;;;;;;;;;;19.50;57.00;;;23.72;33.60;92845.59;6062694;19;19919;-61
2021/12/10 05:09:51;;;;;;;;;;;19.50;56.90;;;23.71;33.66;92844.03;6051438;19;20940;-62
2021/12/10 05:11:53;;;;;;;;;;;19.50;56.90;;;23.72;33.71;92846.38;6065201;19;20375;-65
2021/12/10 05:13:54;;;;;;;;;;;19.60;57.00;;;23.72;33.69;92830.03;6063737;19;19918;-60
2021/12/10 05:15:58;;;;;;;;;;;19.60;57.00;;;23.73;33.27;92826.16;6051837;19;20352;-62
2021/12/10 05:17:59;;;;;;;;;;;19.50;57.00;;;23.75;33.78;92833.94;6059274;19;19938;-62
2021/12/10 05:20:11;;;;;;;;;;;19.60;57.00;;;23.74;33.52;92818.78;6081426;19;19918;-63
2021/12/10 05:22:12;;;;;;;;;;;19.60;57.00;;;23.73;33.73;92814.50;6068347;19;19926;-62
2021/12/10 05:24:13;;;;;;;;;;;19.60;57.00;;;23.73;33.69;92809.06;6061334;19;19915;-62
2021/12/10 05:26:14;;;;;;;;;;;19.60;57.60;;;23.73;33.61;92803.63;6057663;19;20341;-62
2021/12/10 05:28:15;;;;;;;;;;;19.60;57.10;;;23.74;33.51;92805.16;6066020;19;19914;-62
2021/12/10 05:30:18;;;;;;;;;;;19.60;57.00;;;23.74;33.22;92810.63;6057542;19;19915;-62
2021/12/10 05:32:19;;;;;;;;;;;19.60;57.00;;;23.73;33.33;92803.63;6060052;19;19985;-62
2021/12/10 05:34:19;;;;;;;;;;;19.50;57.00;;;23.73;33.72;92803.63;6069208;19;20276;-62
2021/12/10 05:36:20;;;;;;;;;;;19.50;57.00;;;23.72;33.32;92802.06;6064069;19;19921;-62
2021/12/10 05:38:21;;;;;;;;;;;19.50;57.60;;;23.70;33.46;92788.84;6081014;19;19914;-62
2021/12/10 05:40:23;;;;;;;;;;;19.50;57.00;;;23.71;33.54;92786.91;6071886;19;19922;-62
2021/12/10 05:42:24;;;;;;;;;;;19.50;57.00;;;23.70;33.46;92777.97;6053813;19;19956;-62
2021/12/10 05:44:24;;;;;;;;;;;19.60;57.00;;;23.70;33.64;92777.97;6076238;19;19962;-63
2021/12/10 05:46:26;;;;;;;;;;;19.50;57.00;;;23.70;33.76;92782.63;6048742;19;19930;-62
2021/12/10 05:48:27;;;;;;;;;;;19.50;57.00;;;23.69;33.67;92773.69;6051533;19;19966;-62
2021/12/10 05:50:28;;;;;;;;;;;19.50;57.00;;;23.70;33.72;92769.81;6057447;19;20375;-63
2021/12/10 05:52:29;;;;;;;;;;;19.50;57.00;;;23.70;33.68;92769.03;6076477;19;19921;-63
2021/12/10 05:54:30;;;;;;;;;;;19.50;57.10;;;23.68;33.29;92755.03;6051420;19;20002;-62
2021/12/10 05:56:31;;;;;;;;;;;19.50;57.00;;;23.68;33.49;92749.59;6055662;19;21257;-63
2021/12/10 05:58:32;;;;;;;;;;;19.50;57.00;;;23.68;33.72;92736.78;6052318;19;20469;-63
2021/12/10 06:00:37;;;;;;;;;;;19.50;57.00;;;23.68;33.81;92731.34;6067375;19;19973;-63
2021/12/10 06:02:38;;;;;;;;;;;19.50;57.00;;;23.68;33.44;92736.00;6059009;19;19919;-62
2021/12/10 06:04:39;;;;;;;;;;;19.50;57.00;;;23.68;33.49;92739.50;6071232;19;20949;-63
2021/12/10 06:06:40;;;;;;;;;;;19.50;57.00;;;23.69;33.41;92732.13;6075420;19;19910;-63
2021/12/10 06:08:40;;;;;;;;;;;19.50;57.00;;;23.68;33.41;92736.00;6081639;19;19926;-63
2021/12/10 06:10:43;;;;;;;;;;;19.50;57.00;;;23.69;33.74;92726.69;6083881;19;19919;-63
2021/12/10 06:12:45;;;;;;;;;;;19.50;57.10;;;23.69;33.58;92721.22;6079187;19;19915;-62
2021/12/10 06:14:46;;;;;;;;;;;19.50;57.00;;;23.69;33.33;92716.56;6064650;19;19936;-63
2021/12/10 06:16:46;;;;;;;;;;;19.50;57.00;;;23.70;33.62;92715.41;6079824;19;20797;-62
2021/12/10 06:18:47;;;;;;;;;;;19.50;57.10;;;23.70;33.75;92709.97;6082065;19;19986;-63
2021/12/10 06:20:50;;;;;;;;;;;19.50;57.00;;;23.70;33.57;92712.69;6071992;19;19914;-63
2021/12/10 06:22:51;;;;;;;;;;;19.50;57.00;;;23.70;33.75;92709.97;6064503;19;20269;-62
2021/12/10 06:24:52;;;;;;;;;;;19.50;57.00;;;23.70;33.58;92715.41;6079380;19;19918;-63
2021/12/10 06:26:53;;;;;;;;;;;19.50;57.00;;;23.69;33.70;92710.34;6070317;19;19918;-63
2021/12/10 06:28:54;;;;;;;;;;;19.50;57.50;;;23.69;33.65;92711.13;6049807;19;19911;-63
2021/12/10 06:30:54;;;;;;;;;;;19.50;57.00;;;23.69;33.68;92702.97;6050020;19;20079;-63
2021/12/10 06:32:59;;;;;;;;;;;19.50;56.90;;;23.70;33.55;92701.81;6059695;19;19910;-63
2021/12/10 06:35:00;;;;;;;;;;;19.50;56.90;;;23.69;33.69;92697.53;6042158;19;19930;-63
2021/12/10 06:37:02;;;;;;;;;;;19.50;56.80;;;23.69;33.48;92702.97;6074889;19;19923;-63
2021/12/10 06:39:04;;;;;;;;;;;19.50;56.80;;;23.68;33.28;92698.69;6047455;19;20650;-63
2021/12/10 06:41:06;;;;;;;;;;;19.50;56.60;;;23.67;33.33;92691.69;6039952;19;19919;-63
2021/12/10 06:43:07;;;;;;;;;;;19.50;56.50;;;23.67;33.25;92680.03;6041961;19;19915;-63
2021/12/10 06:45:11;;;;;;;;;;;19.50;56.60;;;23.67;33.37;92669.94;6037903;19;22299;-63
2021/12/10 06:47:12;;;;;;;;;;;19.50;56.40;;;23.66;33.23;92665.66;6051320;19;20249;-63
2021/12/10 06:49:15;;;;;;;;;;;19.50;56.20;;;23.66;33.49;92665.66;6049713;19;20391;-63
2021/12/10 06:51:19;;;;;;;;;;;19.50;56.10;;;23.67;33.17;92666.44;6041824;19;20508;-63
2021/12/10 06:53:22;;;;;;;;;;;19.50;56.20;;;23.67;33.49;92663.72;6049104;19;19919;-62
2021/12/10 06:55:23;;;;;;;;;;;19.50;56.10;;;23.66;33.38;92670.34;6040683;19;19918;-62
2021/12/10 06:57:24;;;;;;;;;;;19.50;56.00;;;23.65;33.25;92666.84;6071313;19;20304;-63
2021/12/10 06:59:26;;;;;;;;;;;19.50;55.90;;;23.66;33.22;92662.19;6069446;19;19946;-64
2021/12/10 07:01:31;;;;;;;;;;;19.50;55.80;;;23.65;32.84;92660.63;6065669;19;19951;-63
2021/12/10 07:03:32;;;;;;;;;;;19.50;55.90;;;23.65;32.97;92660.63;6067309;19;19919;-63
2021/12/10 07:05:37;;;;;;;;;;;19.50;55.70;;;23.65;33.02;92649.75;6066440;19;19961;-63
2021/12/10 07:07:38;;;;;;;;;;;19.50;55.70;;;23.64;32.84;92645.47;6075659;19;20553;-63
2021/12/10 07:09:39;;;;;;;;;;;19.50;55.70;;;23.63;32.72;92646.63;6075354;19;19930;-63
2021/12/10 07:11:40;;;;;;;;;;;19.50;55.60;;;23.64;33.03;92640.03;6069964;19;19994;-63
2021/12/10 07:13:44;;;;;;;;;;;19.50;55.50;;;23.63;32.91;92641.19;6074823;19;19947;-63
2021/12/10 07:15:46;;;;;;;;;;;19.50;55.40;;;23.63;32.84;92635.75;6076304;19;19922;-63
2021/12/10 07:17:49;;;;;;;;;;;19.50;55.50;;;23.61;32.48;92636.13;6069528;19;20397;-63
2021/12/10 07:19:50;;;;;;;;;;;19.50;55.40;;;23.62;32.69;92636.94;6076060;19;19915;-63
2021/12/10 07:21:50;;;;;;;;;;;19.50;55.30;;;23.62;32.72;92634.22;6065158;19;19943;-62
2021/12/10 07:23:52;;;;;;;;;;;19.50;55.10;;;23.61;32.53;92629.91;6069416;19;21477;-63
2021/12/10 07:25:53;;;;;;;;;;;19.50;55.10;;;23.60;32.40;92625.63;6075293;19;19922;-63
2021/12/10 07:27:53;;;;;;;;;;;19.50;55.10;;;23.59;32.80;92624.84;6072021;19;19946;-62
2021/12/10 07:29:54;;;;;;;;;;;19.50;55.00;;;23.58;32.33;92615.16;6071027;19;20291;-63
2021/12/10 07:31:55;;;;;;;;;;;19.50;55.00;;;23.58;32.67;92609.72;6080759;19;20344;-62
2021/12/10 07:33:56;;;;;;;;;;;19.40;54.90;;;23.58;32.31;92617.09;6065572;19;20397;-62
2021/12/10 07:35:57;;;;;;;;;;;19.40;54.80;;;23.58;32.78;92617.09;6070676;19;19915;-63
2021/12/10 07:37:58;;;;;;;;;;;19.40;54.80;;;23.58;32.49;92617.09;6063250;19;20376;-62
2021/12/10 07:39:59;;;;;;;;;;;19.50;55.00;;;23.58;32.63;92617.88;6061369;19;20291;-62
2021/12/10 07:42:00;;;;;;;;;;;19.40;54.80;;;23.58;32.65;92612.44;6071396;19;19928;-62
2021/12/10 07:44:03;;;;;;;;;;;19.40;54.90;;;23.59;32.40;92615.94;6071983;19;19915;-63
2021/12/10 07:46:04;;;;;;;;;;;19.40;54.90;;;23.59;32.55;92605.03;6063139;19;19943;-63
2021/12/10 07:48:11;;;;;;;;;;;19.50;55.00;;;23.59;32.60;92605.03;6058385;19;19925;-63
2021/12/10 07:50:16;;;;;;;;;;;19.40;54.90;;;23.59;32.57;92603.09;6084028;19;19918;-60
2021/12/10 07:52:27;;;;;;;;;;;19.40;54.90;;;23.59;32.61;92594.94;6073191;19;19939;-59
2021/12/10 07:54:34;;;;;;;;;;;19.50;55.00;;;23.60;32.26;92587.56;6086751;19;20757;-59
2021/12/10 07:56:35;;;;;;;;;;;19.50;55.00;;;23.61;32.89;92589.88;6090372;19;19919;-60
2021/12/10 07:58:37;;;;;;;;;;;19.50;55.00;;;23.61;32.47;92586.38;6085975;19;20265;-59
2021/12/10 08:00:40;;;;;;;;;;;19.50;55.00;;;23.63;32.33;92586.81;6084204;19;20914;-60
2021/12/10 08:02:47;;;;;;;;;;;19.50;55.00;;;23.64;32.49;92585.63;6073990;19;20597;-63
2021/12/10 08:04:48;;;;;;;;;;;19.50;55.00;;;23.66;32.59;92594.19;6070104;19;19928;-62
2021/12/10 08:06:52;;;;;;;;;;;19.50;54.90;;;23.67;32.27;92590.28;6072869;19;20383;-63
2021/12/10 08:08:53;;;;;;;;;;;19.50;55.00;;;23.68;32.47;92583.69;6076320;19;20026;-62
2021/12/10 08:10:53;;;;;;;;;;;19.50;55.00;;;23.71;32.42;92577.44;6061740;19;19922;-63
2021/12/10 08:12:54;;;;;;;;;;;19.50;55.00;;;23.71;32.81;92572.78;6061133;19;20350;-62
2021/12/10 08:14:55;;;;;;;;;;;19.50;55.00;;;23.71;32.64;92570.06;6076488;19;20006;-65
2021/12/10 08:16:56;;;;;;;;;;;19.50;55.00;;;23.72;32.54;92568.13;6078319;19;19911;-62
2021/12/10 08:18:57;;;;;;;;;;;19.50;55.00;;;23.74;32.61;92571.22;6061895;19;19915;-63
2021/12/10 08:20:58;;;;;;;;;;;19.50;54.90;;;23.75;32.43;92572.75;6078645;19;19914;-62
2021/12/10 08:22:59;;;;;;;;;;;19.50;54.90;;;23.75;32.66;92567.31;6060305;19;19921;-63
2021/12/10 08:25:00;;;;;;;;;;;19.50;54.90;;;23.75;32.16;92562.66;6082202;19;19919;-62
2021/12/10 08:27:04;;;;;;;;;;;19.50;55.00;;;23.76;32.62;92568.88;6089224;19;19927;-62
2021/12/10 08:29:06;;;;;;;;;;;19.50;54.90;;;23.77;32.32;92564.22;6073452;19;19919;-62
2021/12/10 08:31:07;;;;;;;;;;;19.50;55.00;;;23.77;32.13;92550.59;6071271;19;20430;-62
2021/12/10 08:33:15;;;;;;;;;;;19.50;55.00;;;23.76;32.11;92558.00;6078269;19;19926;-62
2021/12/10 08:35:20;;;;;;;;;;;19.50;55.00;;;23.77;32.46;92548.66;6068377;19;19943;-62
2021/12/10 08:37:21;;;;;;;;;;;19.60;55.00;;;23.77;32.15;92551.38;6047522;19;19990;-63
2021/12/10 08:39:22;;;;;;;;;;;19.50;55.00;;;23.79;32.27;92548.25;6063630;19;20991;-62
2021/12/10 08:41:27;;;;;;;;;;;19.60;55.10;;;23.79;32.62;92540.09;6057082;19;19943;-63
2021/12/10 08:43:29;;;;;;;;;;;19.50;55.00;;;23.79;32.28;92545.53;6068477;19;19998;-61
2021/12/10 08:45:30;;;;;;;;;;;19.60;55.10;;;23.78;32.25;92542.03;6038682;19;19923;-62
2021/12/10 08:47:31;;;;;;;;;;;19.60;55.10;;;23.80;32.26;92541.66;6071840;19;19914;-63
2021/12/10 08:49:32;;;;;;;;;;;19.60;55.10;;;23.79;32.62;92545.53;6072492;19;20208;-61
2021/12/10 08:51:37;;;;;;;;;;;19.60;55.20;;;23.80;32.38;92539.72;6071821;19;19948;-62
2021/12/10 08:53:38;;;;;;;;;;;19.60;55.20;;;23.79;32.59;92530.00;6054302;19;19923;-62
2021/12/10 08:55:42;;;;;;;;;;;19.60;55.20;;;23.79;32.51;92535.44;6073699;19;19939;-63
2021/12/10 08:57:44;;;;;;;;;;;19.60;55.10;;;23.79;32.70;92534.66;6078599;19;20991;-61
2021/12/10 08:59:45;;;;;;;;;;;19.60;55.20;;;23.80;32.36;92537.00;6065026;19;20404;-62
2021/12/10 09:01:47;;;;;;;;;;;19.60;55.30;;;23.80;32.42;92528.81;6071522;19;20273;-62
2021/12/10 09:03:51;;;;;;;;;;;19.60;55.30;;;23.80;32.69;92526.09;6077313;19;20619;-62
2021/12/10 09:05:54;;;;;;;;;;;19.50;55.10;;;23.83;32.58;92514.44;6068021;19;19965;-63
2021/12/10 09:07:55;;;;;;;;;;;19.60;55.50;;;23.86;32.90;92524.50;6081386;19;19927;-62
2021/12/10 09:09:56;;;;;;;;;;;19.70;55.10;;;23.88;32.92;92527.63;6075578;19;20299;-61
2021/12/10 09:11:58;;;;;;;;;;;19.70;55.90;;;23.91;32.76;92517.88;6062174;19;19936;-61
2021/12/10 09:14:00;;;;;;;;;;;19.60;55.40;;;23.93;32.71;92516.31;6082604;19;19915;-61
2021/12/10 09:16:12;;;;;;;;;;;19.70;55.30;;;23.94;32.63;92517.09;6074674;19;19922;-61
2021/12/10 09:18:13;;;;;;;;;;;19.70;55.40;;;23.95;32.24;92511.25;6082301;19;20348;-61
2021/12/10 09:20:36;;;;;;;;;;;19.70;55.30;;;23.96;32.18;92507.34;6079291;19;19934;-61
2021/12/10 09:22:37;;;;;;;;;;;19.70;55.30;;;23.96;32.14;92510.06;6080582;19;19950;-61
2021/12/10 09:24:39;;;;;;;;;;;19.70;55.20;;;23.97;32.67;92497.25;6076665;19;21233;-61
2021/12/10 09:26:43;;;;;;;;;;;19.70;55.10;;;23.98;32.47;92496.06;6068779;19;19938;-61
2021/12/10 09:28:45;;;;;;;;;;;19.80;55.10;;;23.98;32.28;92504.25;6083435;19;19919;-63
2021/12/10 09:30:50;;;;;;;;;;;19.80;55.00;;;23.98;32.45;92499.56;6048624;19;21335;-61
2021/12/10 09:32:51;;;;;;;;;;;19.80;55.00;;;23.98;32.48;92499.56;6055176;19;19915;-59
2021/12/10 09:34:54;;;;;;;;;;;19.80;55.00;;;24.00;32.09;92494.50;6061097;19;19934;-61